Phoenix, AZ

12:49 AM MST on September 19, 2014 (GMT -0700)
Phoenix Sky Harbor International | Change Station
CLOSE
Current Station
Airport
Location: Phoenix,
Elevation: 1106 ft
Nearby Weather Stations

Elev 1106 ft 33.43 °N, 112.00 °W | Updated 58 minutes ago

Mostly Cloudy
Mostly Cloudy
87 °F
Feels Like 89 °F
N
10
Wind Variable Wind from SSE

Today
High -- | Low -- °F
--% Chance of Precip.
Yesterday
High -- | Low -- °F
Precip. -- in
6:14 AM 6:28 PM
Waning Crescent, 21% visible
Pressure 29.69 in
Visibility 10.0 miles
Clouds Mostly Cloudy 7500 ft
Mostly Cloudy 11000 ft
Heat Index 89 °F
Dew Point 65 °F
Humidity 48%
Rainfall 0.00 in
Snow Depth Not available.
UV 0 out of 12
Pollen 4.10 out of 12
PM2.5 Good
Flu Activity Not available.
METAR KPHX 190651Z 15009KT 10SM BKN075 BKN110 31/18 A2975 RMK AO2 SLP054 T03060183 403560244

More Conditions Fewer Conditions

Pressure 29.69 in
Visibility 10.0 miles
Clouds Mostly Cloudy 7500 ft
Mostly Cloudy 11000 ft
Heat Index 89 °F
Dew Point 65 °F
Humidity 48%
Rainfall 0.00 in
Snow Depth Not available.
UV 0 out of 12
Pollen 4.10 out of 12
PM2.5 Good
Flu Activity Not available.
METAR KPHX 190651Z 15009KT 10SM BKN075 BKN110 31/18 A2975 RMK AO2 SLP054 T03060183 403560244

More Conditions Fewer Conditions

10-Day Weather Forecast

Almanac

Astronomy

Sep. 19, 2014 Rise Set
Actual Time 6:14 AM MST 6:28 PM MST
Civil Twilight 5:49 AM MST 6:53 PM MST
Nautical Twilight 5:20 AM MST 7:22 PM MST
Astronomical Twilight 4:50 AM MST 7:51 PM MST
Moon 2:12 AM MST 3:51 PM MST
Length of Visible Light 13h 04m
Length of Day
12h 14m
Tomorrow will be 2m 4s shorter.
Waning Crescent, 21% of the Moon is Illuminated
Today
Waning Crescent
Sep 24
New
Oct 1
First Quarter
Oct 8
Full
Oct 15
Last Quarter

Today's Extremes

State Highs State Lows

Community

WunderPhotos

Upload Photos

1,754,578 photos uploaded!

Nearby

Air Quality

  Air Quality AQ Index Pollutant
Yesterday Good
OZONE
Yesterday Good
PM10
Current Good
PM2.5
Friday Good
OZONE
Friday Good
PM10
Friday Good
CO
Saturday Good
OZONE
Saturday Good
PM10
Saturday Good
CO

Snow Depth

Station Depth Elevation
Maverick Fork 0 in 9200 ft
Workman Creek 2 in 6900 ft
Fry 0 in 7200 ft
Snowslide Canyon 0 in 9730 ft
Promontory 0 in 7930 ft

Earthquake Activity

City Distance Mag. Time & Date
No recent earthquake activity has been reported nearby.
Minimum magnitude displayed is 2.5.

Coastal Water Temperatures

Place Temperature
No Stations Reporting

Nearby Weather Stations